createdAt,value
2019-05-14T00:00:36.165Z,49.2
2019-05-14T00:01:37.521Z,48.8
2019-05-14T00:02:41.187Z,49.7
2019-05-14T00:03:41.350Z,49.5
2019-05-14T00:04:42.351Z,49.4
2019-05-14T00:05:42.845Z,49.4
2019-05-14T00:06:44.202Z,49.9
2019-05-14T00:07:45.545Z,50.4
2019-05-14T00:08:46.897Z,50.1
2019-05-14T00:09:48.241Z,50.8
2019-05-14T00:10:51.800Z,50.6
2019-05-14T00:11:51.220Z,50.5
2019-05-14T00:12:52.241Z,50.6
2019-05-14T00:13:53.590Z,50.7
2019-05-14T00:14:54.936Z,50.9
2019-05-14T00:15:56.292Z,51.1
2019-05-14T00:16:57.638Z,51.2
2019-05-14T00:18:01.073Z,51.4
2019-05-14T00:19:01.669Z,51.7
2019-05-14T00:20:07.200Z,51.9
2019-05-14T00:21:02.943Z,51.7
2019-05-14T00:22:04.292Z,51.8
2019-05-14T00:23:05.632Z,51.8
2019-05-14T00:24:06.991Z,52.2
2019-05-14T00:25:08.347Z,51.9
2019-05-14T00:26:11.989Z,51.5
2019-05-14T00:27:11.402Z,52.2
2019-05-14T00:28:12.403Z,52.1
2019-05-14T00:29:13.766Z,51.8
2019-05-14T00:30:15.115Z,52.1
2019-05-14T00:31:16.462Z,52.0
2019-05-14T00:32:17.837Z,52.2
2019-05-14T00:33:19.191Z,51.8
2019-05-14T00:34:32.107Z,51.7
2019-05-14T00:35:34.119Z,52.1
2019-05-14T00:36:33.881Z,52.0
2019-05-14T00:37:35.245Z,52.0
2019-05-14T00:38:36.604Z,52.2
2019-05-14T00:39:38.026Z,52.6
2019-05-14T00:40:41.781Z,52.2
2019-05-14T00:41:42.065Z,52.2
2019-05-14T00:42:42.040Z,52.3
2019-05-14T00:43:43.398Z,52.6
2019-05-14T00:44:54.279Z,52.7
2019-05-14T00:45:46.147Z,52.7
2019-05-14T00:46:47.490Z,52.6
2019-05-14T00:47:48.868Z,52.8
2019-05-14T00:48:51.444Z,52.4
2019-05-14T00:49:51.759Z,52.8
2019-05-14T00:50:52.858Z,53.0
2019-05-14T00:51:54.212Z,52.8
2019-05-14T00:52:55.562Z,53.1
2019-05-14T00:53:56.905Z,53.3
2019-05-14T00:54:58.257Z,53.8
2019-05-14T00:56:01.868Z,53.6
2019-05-14T00:57:01.474Z,53.1
2019-05-14T00:58:02.517Z,53.2
2019-05-14T00:59:03.572Z,53.4
2019-05-14T01:00:04.922Z,53.2
2019-05-14T01:01:06.272Z,53.2
2019-05-14T01:02:07.633Z,53.4
2019-05-14T01:03:11.027Z,53.6
2019-05-14T01:04:11.802Z,53.7
2019-05-14T01:05:12.520Z,53.8
2019-05-14T01:06:52.447Z,54.0
2019-05-14T01:07:53.795Z,54.1
2019-05-14T01:08:55.141Z,54.3
2019-05-14T01:09:56.505Z,54.4
2019-05-14T01:10:57.846Z,54.3
2019-05-14T01:11:59.197Z,54.6
2019-05-14T01:13:01.228Z,54.9
2019-05-14T01:14:01.919Z,54.9
2019-05-14T01:15:10.258Z,54.9
2019-05-14T01:16:04.643Z,54.7
2019-05-14T01:17:05.991Z,54.9
2019-05-14T01:18:07.341Z,55.3
2019-05-14T01:19:08.688Z,55.6
2019-05-14T01:20:12.144Z,55.6
2019-05-14T01:21:11.727Z,55.7
2019-05-14T01:22:12.795Z,56.4
2019-05-14T01:23:13.968Z,56.5
2019-05-14T01:24:15.312Z,57.1
2019-05-14T01:25:16.673Z,57.5
2019-05-14T01:26:18.028Z,57.1
2019-05-14T01:27:20.988Z,57.7
2019-05-14T01:28:21.613Z,57.3
2019-05-14T01:29:22.064Z,57.2
2019-05-14T01:30:23.361Z,57.4
2019-05-14T01:31:24.715Z,57.3
2019-05-14T01:32:26.042Z,57.4
2019-05-14T01:33:27.394Z,56.8
2019-05-14T01:34:28.748Z,56.5
2019-05-14T01:35:31.573Z,57.0
2019-05-14T01:36:32.011Z,56.1
2019-05-14T01:37:32.743Z,56.6
2019-05-14T01:38:34.088Z,56.5
2019-05-14T01:39:35.442Z,55.8
2019-05-14T01:40:36.788Z,55.8
2019-05-14T01:41:38.142Z,55.2
2019-05-14T01:42:41.343Z,55.3
2019-05-14T01:43:41.918Z,55.2
2019-05-14T01:44:42.128Z,55.3
2019-05-14T01:45:43.483Z,55.2
2019-05-14T01:46:44.817Z,55.3
2019-05-14T01:47:46.176Z,55.7
2019-05-14T01:48:47.528Z,55.7
2019-05-14T01:49:48.884Z,55.7
2019-05-14T01:50:51.825Z,55.2
2019-05-14T01:51:51.592Z,55.4
2019-05-14T01:52:52.936Z,55.4
2019-05-14T01:53:54.288Z,54.9
2019-05-14T01:54:55.639Z,54.7
2019-05-14T01:55:56.987Z,54.7
2019-05-14T01:56:58.342Z,55.3
2019-05-14T01:58:01.841Z,55.4
2019-05-14T01:59:01.735Z,55.4
2019-05-14T02:00:02.456Z,55.2
2019-05-14T02:01:03.631Z,55.1
2019-05-14T02:02:04.982Z,55.2
2019-05-14T02:03:06.339Z,55.1
2019-05-14T02:04:07.674Z,55.2
2019-05-14T02:05:09.036Z,55.2
2019-05-14T02:06:11.845Z,55.2
2019-05-14T02:07:11.815Z,55.3
2019-05-14T02:08:13.118Z,55.2
2019-05-14T02:09:14.466Z,55.2
2019-05-14T02:10:15.814Z,55.7
2019-05-14T02:11:17.164Z,55.6
2019-05-14T02:12:18.508Z,55.2
2019-05-14T02:13:21.373Z,55.6
2019-05-14T02:14:22.016Z,55.9
2019-05-14T02:15:35.250Z,55.7
2019-05-14T02:16:23.818Z,55.5
2019-05-14T02:17:25.167Z,55.7
2019-05-14T02:18:26.523Z,55.7
2019-05-14T02:19:27.932Z,55.8
2019-05-14T02:20:29.289Z,55.6
2019-05-14T02:21:31.766Z,55.8
2019-05-14T02:22:32.012Z,55.8
2019-05-14T02:23:33.273Z,55.7
2019-05-14T02:24:34.617Z,55.9
2019-05-14T02:25:35.965Z,55.6
2019-05-14T02:26:37.314Z,55.6
2019-05-14T02:27:38.663Z,55.5
2019-05-14T02:28:41.860Z,55.6
2019-05-14T02:29:41.623Z,55.9
2019-05-14T02:30:52.542Z,55.9
2019-05-14T02:31:43.958Z,55.8
2019-05-14T02:32:45.310Z,55.8
2019-05-14T02:33:49.991Z,55.6
2019-05-14T02:34:49.942Z,55.7
2019-05-14T02:35:49.577Z,55.7
2019-05-14T02:36:50.609Z,55.5
2019-05-14T02:37:51.953Z,55.2
2019-05-14T02:38:53.311Z,55.3
2019-05-14T02:39:54.658Z,55.2
2019-05-14T02:40:56.009Z,55.4
2019-05-14T02:41:59.008Z,55.7
2019-05-14T02:42:59.249Z,55.6
2019-05-14T02:43:59.990Z,55.5
2019-05-14T02:45:01.390Z,55.9
2019-05-14T02:46:12.035Z,55.9
2019-05-14T02:47:04.142Z,56.5
2019-05-14T02:48:05.475Z,56.5
2019-05-14T02:49:10.166Z,56.4
2019-05-14T02:50:09.960Z,56.3
2019-05-14T02:51:10.542Z,56.2
2019-05-14T02:52:10.894Z,56.2
2019-05-14T02:53:12.245Z,56.3
2019-05-14T02:54:13.596Z,56.3
2019-05-14T02:55:14.939Z,56.3
2019-05-14T02:56:16.299Z,56.3
2019-05-14T02:57:19.996Z,56.7
2019-05-14T02:58:20.528Z,56.6
2019-05-14T02:59:20.272Z,56.6
2019-05-14T03:00:21.627Z,56.6
2019-05-14T03:01:22.968Z,56.6
2019-05-14T03:02:24.319Z,56.6
2019-05-14T03:03:25.675Z,56.5
2019-05-14T03:04:29.812Z,57.1
2019-05-14T03:05:29.589Z,56.6
2019-05-14T03:06:29.646Z,56.6
2019-05-14T03:07:31.005Z,57.1
2019-05-14T03:08:32.355Z,56.9
2019-05-14T03:09:33.705Z,57.0
2019-05-14T03:10:35.045Z,57.1
2019-05-14T03:11:39.994Z,56.8
2019-05-14T03:12:39.584Z,57.1
2019-05-14T03:13:39.946Z,56.6
2019-05-14T03:14:40.424Z,57.0
2019-05-14T03:15:41.724Z,56.9
2019-05-14T03:16:43.070Z,56.4
2019-05-14T03:17:44.409Z,56.9
2019-05-14T03:18:45.768Z,56.5
2019-05-14T03:19:49.426Z,57.0
2019-05-14T03:20:50.264Z,56.9
2019-05-14T03:21:50.380Z,57.0
2019-05-14T03:23:02.643Z,57.2
2019-05-14T03:23:52.370Z,57.4
2019-05-14T03:24:53.729Z,57.1
2019-05-14T03:25:55.075Z,57.1
2019-05-14T03:26:58.510Z,57.3
2019-05-14T03:27:59.830Z,57.0
2019-05-14T03:29:00.152Z,57.2
2019-05-14T03:30:00.409Z,57.7
2019-05-14T03:31:03.388Z,57.7
2019-05-14T03:32:03.835Z,57.6
2019-05-14T03:33:04.395Z,57.6
2019-05-14T03:34:05.870Z,58.1
2019-05-14T03:35:12.286Z,57.5
2019-05-14T03:36:16.614Z,57.7
2019-05-14T03:37:12.837Z,57.8
2019-05-14T03:38:11.375Z,57.6
2019-05-14T03:39:12.719Z,57.3
2019-05-14T03:40:14.073Z,57.0
2019-05-14T03:41:15.445Z,56.9
2019-05-14T03:42:19.271Z,57.0
2019-05-14T03:43:19.833Z,56.7
2019-05-14T03:44:19.913Z,57.1
2019-05-14T03:45:20.768Z,56.9
2019-05-14T03:46:39.757Z,57.2
2019-05-14T03:47:23.436Z,57.0
2019-05-14T03:48:24.785Z,57.0
2019-05-14T03:49:28.645Z,57.0
2019-05-14T03:50:29.791Z,56.9
2019-05-14T03:51:29.765Z,57.1
2019-05-14T03:52:30.076Z,56.4
2019-05-14T03:53:31.447Z,56.7
2019-05-14T03:54:32.784Z,56.7
2019-05-14T03:55:34.136Z,56.9
2019-05-14T03:56:35.486Z,57.3
2019-05-14T03:57:39.583Z,57.6
2019-05-14T03:58:39.288Z,57.5
2019-05-14T03:59:40.245Z,57.6
2019-05-14T04:00:40.914Z,57.2
2019-05-14T04:01:42.334Z,57.6
2019-05-14T04:02:43.585Z,57.3
2019-05-14T04:03:44.949Z,57.4
2019-05-14T04:04:49.814Z,57.2
2019-05-14T04:05:49.410Z,57.5
2019-05-14T04:06:49.650Z,57.2
2019-05-14T04:07:50.543Z,57.2
2019-05-14T04:08:51.561Z,57.3
2019-05-14T04:09:52.917Z,57.4
2019-05-14T04:10:54.632Z,57.3
2019-05-14T04:11:55.696Z,57.1
2019-05-14T04:12:59.825Z,57.0
2019-05-14T04:14:00.186Z,56.7
2019-05-14T04:14:59.850Z,56.7
2019-05-14T04:16:01.004Z,56.8
2019-05-14T04:17:09.855Z,56.8
2019-05-14T04:18:03.681Z,56.7
2019-05-14T04:19:05.031Z,56.9
2019-05-14T04:20:09.168Z,56.4
2019-05-14T04:21:09.888Z,56.7
2019-05-14T04:22:10.149Z,56.7
2019-05-14T04:23:10.345Z,56.8
2019-05-14T04:24:11.686Z,56.7
2019-05-14T04:25:13.042Z,56.9
2019-05-14T04:26:14.395Z,56.1
2019-05-14T04:27:15.756Z,56.6
2019-05-14T04:28:19.457Z,57.2
2019-05-14T04:29:19.632Z,57.1
2019-05-14T04:30:24.035Z,57.0
2019-05-14T04:31:21.078Z,56.9
2019-05-14T04:32:22.476Z,56.7
2019-05-14T04:33:23.919Z,56.6
2019-05-14T04:34:25.072Z,56.8
2019-05-14T04:35:29.449Z,56.1
2019-05-14T04:36:29.918Z,56.2
2019-05-14T04:37:29.171Z,56.2
2019-05-14T04:38:30.462Z,56.3
2019-05-14T04:39:31.804Z,56.2
2019-05-14T04:40:33.160Z,56.3
2019-05-14T04:41:34.530Z,56.3
2019-05-14T04:42:35.884Z,56.7
2019-05-14T04:43:40.089Z,56.6
2019-05-14T04:44:40.489Z,56.7
2019-05-14T04:45:39.907Z,56.7
2019-05-14T04:46:41.255Z,56.6
2019-05-14T04:47:42.713Z,56.6
2019-05-14T04:48:44.256Z,56.5
2019-05-14T04:49:45.243Z,56.6
2019-05-14T04:50:49.468Z,56.4
2019-05-14T04:51:50.232Z,56.1
2019-05-14T04:52:49.549Z,56.4
2019-05-14T04:53:50.709Z,57.3
2019-05-14T04:54:51.892Z,57.3
2019-05-14T04:55:53.241Z,57.2
2019-05-14T04:56:54.592Z,57.2
2019-05-14T04:57:58.914Z,57.2
2019-05-14T04:58:59.560Z,56.6
2019-05-14T04:59:59.854Z,56.7
2019-05-14T05:01:00.603Z,56.6
2019-05-14T05:02:01.222Z,56.8
2019-05-14T05:03:02.622Z,56.6
2019-05-14T05:04:03.962Z,56.9
2019-05-14T05:05:05.328Z,56.9
2019-05-14T05:06:09.616Z,56.7
2019-05-14T05:07:09.951Z,56.7
2019-05-14T05:08:13.413Z,56.6
2019-05-14T05:09:10.726Z,56.5
2019-05-14T05:10:12.087Z,56.5
2019-05-14T05:11:13.452Z,56.5
2019-05-14T05:12:14.800Z,56.6
2019-05-14T05:13:18.299Z,56.6
2019-05-14T05:14:19.164Z,56.7
2019-05-14T05:15:19.770Z,56.6
2019-05-14T05:16:20.131Z,56.2
2019-05-14T05:17:21.508Z,56.3
2019-05-14T05:18:22.858Z,56.3
2019-05-14T05:19:24.222Z,56.4
2019-05-14T05:20:25.580Z,56.4
2019-05-14T05:21:28.277Z,56.3
2019-05-14T05:22:28.654Z,56.6
2019-05-14T05:23:29.564Z,56.2
2019-05-14T05:24:30.921Z,56.1
2019-05-14T05:25:32.282Z,56.3
2019-05-14T05:26:33.652Z,55.7
2019-05-14T05:27:35.016Z,55.9
2019-05-14T05:28:38.875Z,55.9
2019-05-14T05:29:39.208Z,55.8
2019-05-14T05:30:39.017Z,55.8
2019-05-14T05:31:40.366Z,55.7
2019-05-14T05:32:41.716Z,55.5
2019-05-14T05:33:43.072Z,55.1
2019-05-14T05:34:44.520Z,55.1
2019-05-14T05:35:45.871Z,55.6
2019-05-14T05:36:48.503Z,55.4
2019-05-14T05:37:49.025Z,55.3
2019-05-14T05:38:49.886Z,55.5
2019-05-14T05:39:51.237Z,55.5
2019-05-14T05:40:52.599Z,55.2
2019-05-14T05:41:53.947Z,55.2
2019-05-14T05:42:55.298Z,55.3
2019-05-14T05:43:58.697Z,55.4
2019-05-14T05:44:58.806Z,55.6
2019-05-14T05:45:59.436Z,55.1
2019-05-14T05:47:00.643Z,55.4
2019-05-14T05:48:02.048Z,55.3
2019-05-14T05:49:03.371Z,55.1
2019-05-14T05:50:04.731Z,54.8
2019-05-14T05:51:06.087Z,54.0
2019-05-14T05:52:08.619Z,54.0
2019-05-14T05:53:09.040Z,53.2
2019-05-14T05:54:10.101Z,52.8
2019-05-14T05:55:11.460Z,52.8
2019-05-14T05:56:12.806Z,52.5
2019-05-14T05:57:14.172Z,52.3
2019-05-14T05:58:15.536Z,52.0
2019-05-14T05:59:18.784Z,51.9
2019-05-14T06:00:18.943Z,52.1
2019-05-14T06:01:19.888Z,51.6
2019-05-14T06:02:21.015Z,51.0
2019-05-14T06:03:22.368Z,51.4
2019-05-14T06:04:23.732Z,51.1
2019-05-14T06:05:25.110Z,51.0
2019-05-14T06:06:28.272Z,50.6
2019-05-14T06:07:28.841Z,50.4
2019-05-14T06:08:29.106Z,50.1
2019-05-14T06:09:30.463Z,50.7
2019-05-14T06:10:31.831Z,50.7
2019-05-14T06:11:33.196Z,50.6
2019-05-14T06:12:34.565Z,50.2
2019-05-14T06:13:35.928Z,50.3
2019-05-14T06:14:38.222Z,49.5
2019-05-14T06:15:47.523Z,49.7
2019-05-14T06:16:39.948Z,49.6
2019-05-14T06:17:41.313Z,49.5
2019-05-14T06:18:42.687Z,49.6
2019-05-14T06:19:44.081Z,49.0
2019-05-14T06:20:45.442Z,49.2
2019-05-14T06:21:48.746Z,49.0
2019-05-14T06:22:48.920Z,49.0
2019-05-14T06:23:49.633Z,48.8
2019-05-14T06:24:50.823Z,48.6
2019-05-14T06:25:52.198Z,48.8
2019-05-14T06:26:53.580Z,48.8
2019-05-14T06:27:54.948Z,48.6
2019-05-14T06:28:59.369Z,48.3
2019-05-14T06:29:58.235Z,47.9
2019-05-14T06:30:59.199Z,48.4
2019-05-14T06:32:00.442Z,47.8
2019-05-14T06:33:01.807Z,47.8
2019-05-14T06:34:03.172Z,47.5
2019-05-14T06:35:04.545Z,47.3
2019-05-14T06:36:08.429Z,47.2
2019-05-14T06:37:08.375Z,47.0
2019-05-14T06:38:08.875Z,47.1
2019-05-14T06:39:09.936Z,47.2
2019-05-14T06:40:11.312Z,46.7
2019-05-14T06:41:12.729Z,46.3
2019-05-14T06:42:14.078Z,46.0
2019-05-14T06:43:15.463Z,46.3
2019-05-14T06:44:18.639Z,46.0
2019-05-14T06:45:18.727Z,45.7
2019-05-14T06:46:19.705Z,45.6
2019-05-14T06:47:20.856Z,45.7
2019-05-14T06:48:30.831Z,45.6
2019-05-14T06:49:23.558Z,45.6
2019-05-14T06:50:24.935Z,46.0
2019-05-14T06:51:28.363Z,45.4
2019-05-14T06:52:29.130Z,45.3
2019-05-14T06:53:29.361Z,45.5
2019-05-14T06:54:30.314Z,45.5
2019-05-14T06:55:31.691Z,45.1
2019-05-14T06:56:33.054Z,45.3
2019-05-14T06:57:34.486Z,45.0
2019-05-14T06:58:38.643Z,44.5
2019-05-14T06:59:38.084Z,44.8
2019-05-14T07:00:39.437Z,44.9
2019-05-14T07:01:39.859Z,44.7
2019-05-14T07:02:44.107Z,44.5
2019-05-14T07:03:42.588Z,44.8
2019-05-14T07:04:43.966Z,44.7
2019-05-14T07:05:45.334Z,44.7
2019-05-14T07:07:29.718Z,44.4
2019-05-14T07:08:28.766Z,44.3
2019-05-14T07:10:01.343Z,44.1
2019-05-14T07:11:02.708Z,44.1
2019-05-14T07:12:35.274Z,44.0
2019-05-14T07:13:38.399Z,44.0
2019-05-14T07:15:09.468Z,43.3
2019-05-14T07:16:10.524Z,43.7
2019-05-14T07:17:32.008Z,43.8
2019-05-14T07:18:45.571Z,43.7
2019-05-14T07:20:05.909Z,43.6
2019-05-14T07:21:08.195Z,43.7
2019-05-14T07:22:39.831Z,43.3
2019-05-14T07:23:41.202Z,43.2
2019-05-14T07:25:13.779Z,43.3
2019-05-14T07:26:15.152Z,42.8
2019-05-14T07:27:38.972Z,43.1
2019-05-14T07:28:41.998Z,42.9
2019-05-14T07:30:10.579Z,42.4
2019-05-14T07:31:11.956Z,42.3
2019-05-14T07:32:44.624Z,42.0
2019-05-14T07:33:45.992Z,42.0
2019-05-14T07:35:18.539Z,42.1
2019-05-14T07:36:19.928Z,41.7
2019-05-14T07:37:41.423Z,41.8
2019-05-14T07:38:42.794Z,41.2
2019-05-14T07:40:15.407Z,41.6
2019-05-14T07:41:18.988Z,41.6
2019-05-14T07:42:49.364Z,41.1
2019-05-14T07:43:50.758Z,41.0
2019-05-14T07:45:23.331Z,40.8
2019-05-14T07:46:24.703Z,40.2
2019-05-14T07:47:46.222Z,40.0
2019-05-14T07:49:03.899Z,40.1
2019-05-14T07:50:20.155Z,40.2
2019-05-14T07:51:21.513Z,40.5
2019-05-14T07:52:46.030Z,40.4
2019-05-14T07:53:44.687Z,39.9
2019-05-14T07:55:18.509Z,39.6
2019-05-14T07:56:18.827Z,40.0
2019-05-14T07:57:40.085Z,39.4
2019-05-14T07:58:41.454Z,39.5
2019-05-14T08:00:14.021Z,39.8
2019-05-14T08:01:15.395Z,40.0
2019-05-14T08:02:49.133Z,39.8
2019-05-14T08:03:49.303Z,39.0
2019-05-14T08:05:21.860Z,39.6
2019-05-14T08:06:23.230Z,39.4
2019-05-14T08:07:44.739Z,39.6
2019-05-14T08:08:46.134Z,39.7
2019-05-14T08:10:18.739Z,39.5
2019-05-14T08:11:20.068Z,39.5
2019-05-14T08:12:52.658Z,39.0
2019-05-14T08:13:54.059Z,38.9
2019-05-14T08:15:27.984Z,38.8
2019-05-14T08:16:28.762Z,38.9
2019-05-14T08:17:49.466Z,39.1
2019-05-14T08:18:50.838Z,38.5
2019-05-14T08:20:23.411Z,38.8
2019-05-14T08:21:24.803Z,38.5
2019-05-14T08:22:58.222Z,38.5
2019-05-14T08:23:59.257Z,38.5
2019-05-14T08:25:31.275Z,37.8
2019-05-14T08:26:32.669Z,37.9
2019-05-14T08:28:05.285Z,37.6
2019-05-14T08:29:08.513Z,37.7
2019-05-14T08:30:39.193Z,37.9
2019-05-14T08:31:40.580Z,37.7
2019-05-14T08:33:13.171Z,37.2
2019-05-14T08:34:14.538Z,37.6
2019-05-14T08:35:48.668Z,37.5
2019-05-14T08:36:48.528Z,37.1
2019-05-14T08:38:21.068Z,37.2
2019-05-14T08:39:22.443Z,37.0
2019-05-14T08:40:55.014Z,37.0
2019-05-14T08:42:03.623Z,36.9
2019-05-14T08:42:58.384Z,36.9
2019-05-14T08:43:59.543Z,36.8
2019-05-14T08:45:04.650Z,37.1
2019-05-14T08:46:01.912Z,37.0
2019-05-14T08:47:03.294Z,36.8
2019-05-14T08:48:04.670Z,36.6
2019-05-14T08:49:06.055Z,36.5
2019-05-14T08:50:09.147Z,36.5
2019-05-14T08:51:09.201Z,36.3
2019-05-14T08:52:10.118Z,36.4
2019-05-14T08:53:11.482Z,36.4
2019-05-14T08:54:12.856Z,36.4
2019-05-14T08:55:14.340Z,36.4
2019-05-14T08:56:15.571Z,36.6
2019-05-14T08:57:18.981Z,36.3
2019-05-14T08:58:20.075Z,36.3
2019-05-14T08:59:19.765Z,36.1
2019-05-14T09:00:21.035Z,36.4
2019-05-14T09:01:22.402Z,36.5
2019-05-14T09:02:23.780Z,36.5
2019-05-14T09:03:25.156Z,36.1
2019-05-14T09:04:29.781Z,36.1
2019-05-14T09:05:28.693Z,35.7
2019-05-14T09:06:29.229Z,36.0
2019-05-14T09:07:30.603Z,35.9
2019-05-14T09:08:31.997Z,35.7
2019-05-14T09:09:33.361Z,36.0
2019-05-14T09:10:34.743Z,35.5
2019-05-14T09:11:42.690Z,35.5
2019-05-14T09:12:38.848Z,35.3
2019-05-14T09:13:38.849Z,35.3
2019-05-14T09:14:40.217Z,35.3
2019-05-14T09:15:41.620Z,35.2
2019-05-14T09:16:46.765Z,35.0
2019-05-14T09:17:44.339Z,34.8
2019-05-14T09:18:45.720Z,34.7
2019-05-14T09:20:01.114Z,34.5
2019-05-14T09:20:48.880Z,34.6
2019-05-14T09:21:49.792Z,34.9
2019-05-14T09:22:51.166Z,34.8
2019-05-14T09:23:52.595Z,34.7
2019-05-14T09:24:53.976Z,34.7
2019-05-14T09:25:55.360Z,34.4
2019-05-14T09:26:58.915Z,34.5
2019-05-14T09:27:58.607Z,34.8
2019-05-14T09:28:59.424Z,34.9
2019-05-14T09:30:00.787Z,34.8
2019-05-14T09:31:02.171Z,34.7
2019-05-14T09:32:03.551Z,34.8
2019-05-14T09:33:04.922Z,34.7
2019-05-14T09:34:08.903Z,34.8
2019-05-14T09:35:09.561Z,34.7
2019-05-14T09:36:18.504Z,34.5
2019-05-14T09:37:10.341Z,34.2
2019-05-14T09:38:11.727Z,34.0
2019-05-14T09:39:13.101Z,34.2
2019-05-14T09:40:14.481Z,33.9
2019-05-14T09:41:17.959Z,33.9
2019-05-14T09:42:19.383Z,33.9
2019-05-14T09:43:18.611Z,33.6
2019-05-14T09:44:19.980Z,33.1
2019-05-14T09:45:21.356Z,33.6
2019-05-14T09:46:22.746Z,33.7
2019-05-14T09:47:24.111Z,33.5
2019-05-14T09:48:25.526Z,33.7
2019-05-14T09:49:28.266Z,33.8
2019-05-14T09:50:29.134Z,34.1
2019-05-14T09:51:29.585Z,34.1
2019-05-14T09:52:30.952Z,33.9
2019-05-14T09:53:32.323Z,33.9
2019-05-14T09:54:34.486Z,33.7
2019-05-14T09:55:35.917Z,33.9
2019-05-14T09:56:39.364Z,34.0
2019-05-14T09:57:38.795Z,34.0
2019-05-14T09:58:39.954Z,33.8
2019-05-14T09:59:41.327Z,33.8
2019-05-14T10:00:42.698Z,33.9
2019-05-14T10:01:44.072Z,33.9
2019-05-14T10:02:45.441Z,33.5
2019-05-14T10:03:49.345Z,34.0
2019-05-14T10:04:48.992Z,33.9
2019-05-14T10:05:50.165Z,33.8
2019-05-14T10:06:50.825Z,33.2
2019-05-14T10:07:52.207Z,33.6
2019-05-14T10:08:53.585Z,33.1
2019-05-14T10:09:54.947Z,33.0
2019-05-14T10:10:56.344Z,32.9
2019-05-14T10:11:58.052Z,33.0
2019-05-14T10:13:01.314Z,33.1
2019-05-14T10:14:00.382Z,33.2
2019-05-14T10:15:01.810Z,33.3
2019-05-14T10:16:03.099Z,33.5
2019-05-14T10:17:04.466Z,33.7
2019-05-14T10:18:11.077Z,33.5
2019-05-14T10:19:07.186Z,33.5
2019-05-14T10:20:08.994Z,33.7
2019-05-14T10:21:09.908Z,33.8
2019-05-14T10:22:11.291Z,33.7
2019-05-14T10:23:12.667Z,33.6
2019-05-14T10:24:14.033Z,33.3
2019-05-14T10:25:15.411Z,33.7
2019-05-14T10:26:18.564Z,33.7
2019-05-14T10:27:18.999Z,33.7
2019-05-14T10:28:19.466Z,33.5
2019-05-14T10:29:20.867Z,33.8
2019-05-14T10:30:22.232Z,34.1
2019-05-14T10:31:23.617Z,33.9
2019-05-14T10:32:24.998Z,34.3
2019-05-14T10:33:28.576Z,34.1
2019-05-14T10:34:28.759Z,34.5
2019-05-14T10:35:29.116Z,34.4
2019-05-14T10:36:30.553Z,34.6
2019-05-14T10:37:31.923Z,34.2
2019-05-14T10:38:33.311Z,34.2
2019-05-14T10:39:34.707Z,34.2
2019-05-14T10:40:38.237Z,33.8
2019-05-14T10:41:38.492Z,33.6
2019-05-14T10:42:40.526Z,33.4
2019-05-14T10:43:40.093Z,33.6
2019-05-14T10:44:41.475Z,33.0
2019-05-14T10:45:42.848Z,33.1
2019-05-14T10:46:44.222Z,33.4
2019-05-14T10:47:45.595Z,33.5
2019-05-14T10:48:46.981Z,33.1
2019-05-14T10:49:48.362Z,33.4
2019-05-14T10:50:57.340Z,33.2
2019-05-14T10:51:51.096Z,33.4
2019-05-14T10:52:52.471Z,33.1
2019-05-14T10:53:53.847Z,33.3
2019-05-14T10:54:56.191Z,33.5
2019-05-14T10:55:58.177Z,33.2
2019-05-14T10:56:59.210Z,32.9
2019-05-14T10:57:59.266Z,32.6
2019-05-14T10:59:00.644Z,32.4
2019-05-14T11:00:02.026Z,32.5
2019-05-14T11:01:03.439Z,32.4
2019-05-14T11:02:04.803Z,32.1
2019-05-14T11:03:06.183Z,32.1
2019-05-14T11:04:07.572Z,32.1
2019-05-14T11:05:08.939Z,32.2
2019-05-14T11:06:11.642Z,32.0
2019-05-14T11:07:11.690Z,31.8
2019-05-14T11:08:13.083Z,31.3
2019-05-14T11:09:14.464Z,31.5
2019-05-14T11:10:15.855Z,31.5
2019-05-14T11:11:18.554Z,31.7
2019-05-14T11:12:19.276Z,31.5
2019-05-14T11:13:19.928Z,31.5
2019-05-14T11:14:21.316Z,31.2
2019-05-14T11:15:22.689Z,31.2
2019-05-14T11:16:24.070Z,31.1
2019-05-14T11:17:25.455Z,30.7
2019-05-14T11:18:28.989Z,30.6
2019-05-14T11:19:28.293Z,30.3
2019-05-14T11:20:31.154Z,30.4
2019-05-14T11:21:30.878Z,30.7
2019-05-14T11:22:32.265Z,30.9
2019-05-14T11:23:33.651Z,31.0
2019-05-14T11:24:35.027Z,31.0
2019-05-14T11:25:38.182Z,31.1
2019-05-14T11:26:39.171Z,31.5
2019-05-14T11:27:39.208Z,31.3
2019-05-14T11:28:40.593Z,31.2
2019-05-14T11:29:41.962Z,31.4
2019-05-14T11:30:43.336Z,31.5
2019-05-14T11:31:44.723Z,31.4
2019-05-14T11:32:46.101Z,31.5
2019-05-14T11:33:49.401Z,31.2
2019-05-14T11:34:48.823Z,31.1
2019-05-14T11:35:50.194Z,31.0
2019-05-14T11:36:51.573Z,30.7
2019-05-14T11:37:52.961Z,30.5
2019-05-14T11:38:54.339Z,30.2
2019-05-14T11:39:57.965Z,30.1
2019-05-14T11:40:58.787Z,30.0
2019-05-14T11:41:59.064Z,29.9
2019-05-14T11:42:59.778Z,30.1
2019-05-14T11:44:01.154Z,29.6
2019-05-14T11:45:02.537Z,30.1
2019-05-14T11:46:03.943Z,30.0
2019-05-14T11:47:05.320Z,29.7
2019-05-14T11:48:08.795Z,30.0
2019-05-14T11:49:08.836Z,29.7
2019-05-14T11:50:09.795Z,29.6
2019-05-14T11:51:10.762Z,29.5
2019-05-14T11:52:12.203Z,29.4
2019-05-14T11:53:13.500Z,29.5
2019-05-14T11:54:14.887Z,29.6
2019-05-14T11:55:18.494Z,29.0
2019-05-14T11:56:19.416Z,29.2
2019-05-14T11:57:19.297Z,29.2
2019-05-14T11:58:21.400Z,29.3
2019-05-14T11:59:21.779Z,29.4
2019-05-14T12:00:25.820Z,29.7
2019-05-14T12:01:24.509Z,29.8
2019-05-14T12:02:25.909Z,29.7
2019-05-14T12:03:28.582Z,29.7
2019-05-14T12:04:28.652Z,29.6
2019-05-14T12:05:30.471Z,29.7
2019-05-14T12:06:31.499Z,29.9
2019-05-14T12:07:32.907Z,29.7
2019-05-14T12:08:34.317Z,29.8
2019-05-14T12:09:35.756Z,29.8
2019-05-14T12:10:38.682Z,29.9
2019-05-14T12:11:38.703Z,29.5
2019-05-14T12:12:39.878Z,30.0
2019-05-14T12:13:41.273Z,30.0
2019-05-14T12:14:42.688Z,30.0
2019-05-14T12:15:44.097Z,29.9
2019-05-14T12:16:45.478Z,29.5
2019-05-14T12:17:50.590Z,30.2
2019-05-14T12:18:48.386Z,30.0
2019-05-14T12:19:49.538Z,30.3
2019-05-14T12:20:50.913Z,30.0
2019-05-14T12:22:06.348Z,30.3
2019-05-14T12:22:53.664Z,30.1
2019-05-14T12:23:55.036Z,30.4
2019-05-14T12:24:58.364Z,30.3
2019-05-14T12:25:58.784Z,30.6
2019-05-14T12:26:59.047Z,30.7
2019-05-14T12:28:00.436Z,30.7
2019-05-14T12:29:01.795Z,31.1
2019-05-14T12:30:03.163Z,31.0
2019-05-14T12:31:04.544Z,31.2
2019-05-14T12:32:05.909Z,31.2
2019-05-14T12:33:07.280Z,31.4
2019-05-14T12:34:08.659Z,31.3
2019-05-14T12:35:10.024Z,31.4
2019-05-14T12:36:11.410Z,31.1
2019-05-14T12:37:12.793Z,31.1
2019-05-14T12:38:14.152Z,31.1
2019-05-14T12:39:15.526Z,31.0
2019-05-14T12:40:19.170Z,30.8
2019-05-14T12:41:19.443Z,30.4
2019-05-14T12:42:19.583Z,30.0
2019-05-14T12:43:20.948Z,30.2
2019-05-14T12:44:22.332Z,30.0
2019-05-14T12:45:23.698Z,30.3
2019-05-14T12:46:25.067Z,30.1
2019-05-14T12:47:28.873Z,30.4
2019-05-14T12:48:29.795Z,30.4
2019-05-14T12:49:29.152Z,30.1
2019-05-14T12:50:30.525Z,30.5
2019-05-14T12:51:31.906Z,30.5
2019-05-14T12:52:33.275Z,30.6
2019-05-14T12:53:34.656Z,30.9
2019-05-14T12:54:38.451Z,30.4
2019-05-14T12:55:39.809Z,30.7
2019-05-14T12:56:38.962Z,30.5
2019-05-14T12:57:40.050Z,30.4
2019-05-14T12:58:45.406Z,30.4
2019-05-14T12:59:42.788Z,30.7
2019-05-14T13:00:44.175Z,30.5
2019-05-14T13:01:45.552Z,30.5
2019-05-14T13:02:46.953Z,30.4
2019-05-14T13:03:48.491Z,29.9
2019-05-14T13:04:49.675Z,30.1
2019-05-14T13:05:51.060Z,30.0
2019-05-14T13:06:52.504Z,30.2
2019-05-14T13:08:33.771Z,29.9
2019-05-14T13:09:35.561Z,29.9
2019-05-14T13:10:38.561Z,30.2
2019-05-14T13:11:41.580Z,30.1
2019-05-14T13:12:41.206Z,30.0
2019-05-14T13:13:43.176Z,30.3
2019-05-14T13:14:44.520Z,30.3
2019-05-14T13:15:48.295Z,30.1
2019-05-14T13:16:48.706Z,29.9
2019-05-14T13:17:49.224Z,29.9
2019-05-14T13:18:50.873Z,30.2
2019-05-14T13:19:52.459Z,30.0
2019-05-14T13:20:53.961Z,30.1
2019-05-14T13:22:12.198Z,30.4
2019-05-14T13:22:57.074Z,30.2
2019-05-14T13:23:58.614Z,30.4
2019-05-14T13:25:00.201Z,30.8
2019-05-14T13:26:01.887Z,31.0
2019-05-14T13:27:03.504Z,31.0
2019-05-14T13:28:05.088Z,31.4
2019-05-14T13:29:10.140Z,31.2
2019-05-14T13:30:09.114Z,31.4
2019-05-14T13:31:09.762Z,31.7
2019-05-14T13:32:12.332Z,31.7
2019-05-14T13:33:12.829Z,31.8
2019-05-14T13:34:14.354Z,31.7
2019-05-14T13:35:19.053Z,31.7
2019-05-14T13:36:19.799Z,31.8
2019-05-14T13:37:18.887Z,31.6
2019-05-14T13:38:20.611Z,31.7
2019-05-14T13:39:22.164Z,31.3
2019-05-14T13:40:23.791Z,31.4
2019-05-14T13:41:25.359Z,31.1
2019-05-14T13:42:29.352Z,31.0
2019-05-14T13:43:30.429Z,30.8
2019-05-14T13:44:29.880Z,30.8
2019-05-14T13:45:31.454Z,30.6
2019-05-14T13:46:33.020Z,30.4
2019-05-14T13:47:34.586Z,30.5
2019-05-14T13:48:42.099Z,30.5
2019-05-14T13:49:39.108Z,30.6
2019-05-14T13:50:40.116Z,30.6
2019-05-14T13:51:40.626Z,30.8
2019-05-14T13:52:58.293Z,30.9
2019-05-14T13:53:43.705Z,31.0
2019-05-14T13:54:45.265Z,31.0
2019-05-14T13:55:50.619Z,31.2
2019-05-14T13:56:48.489Z,31.2